Time;durP1;ratioP1;P1;durP2;ratioP2;P2;SDS_P1;SDS_P2;PMS_P1;PMS_P2;Temp;Humidity;BMP_temperature;BMP_pressure;BME280_temperature;BME280_humidity;BME280_pressure;Samples;Min_cycle;Max_cycle;Signal;HPM_P1;HPM_P2
2023/04/02 00:01:21;;;;;;;;;8.67;6.67;;;;;12.84;100.00;100574.59;4852532;29;28777;-84
2023/04/02 00:03:52;;;;;;;;;4.75;4.75;;;;;12.66;100.00;100564.75;4882698;29;28545;-83
2023/04/02 00:06:33;;;;;;;;;8.33;6.33;;;;;12.83;100.00;100575.50;4882680;29;28816;-83
2023/04/02 00:09:14;;;;;;;;;6.00;5.00;;;;;12.79;100.00;100587.94;4883396;29;29824;-83
2023/04/02 00:11:47;;;;;;;;;6.33;4.00;;;;;12.78;100.00;100580.81;4883892;29;27942;-83
2023/04/02 00:14:22;;;;;;;;;5.00;4.00;;;;;12.79;100.00;100580.81;4885462;29;28430;-83
2023/04/02 00:16:51;;;;;;;;;5.00;5.00;;;;;12.70;100.00;100587.91;4885883;29;28583;-83
2023/04/02 00:19:56;;;;;;;;;8.67;6.33;;;;;12.77;100.00;100579.91;4883372;29;29999;-83
2023/04/02 00:22:32;;;;;;;;;4.75;4.75;;;;;12.70;100.00;100583.44;4881880;29;28642;-83
2023/04/02 00:25:01;;;;;;;;;5.00;4.50;;;;;12.72;100.00;100592.34;4883553;29;27864;-84
2023/04/02 00:27:29;;;;;;;;;3.67;3.67;;;;;12.71;100.00;100587.91;4883536;29;28685;-84
2023/04/02 00:29:56;;;;;;;;;8.00;6.33;;;;;12.64;100.00;100594.09;4880729;29;30135;-83
2023/04/02 00:32:28;;;;;;;;;5.00;5.00;;;;;12.77;100.00;100589.72;4882628;29;28921;-83
2023/04/02 00:34:54;;;;;;;;;7.67;5.00;;;;;12.72;100.00;100599.47;4883490;29;27872;-83
2023/04/02 00:37:26;;;;;;;;;7.00;7.00;;;;;12.72;100.00;100594.13;4883502;29;28638;-83
2023/04/02 00:40:08;;;;;;;;;7.00;5.67;;;;;12.76;100.00;100593.25;4881862;29;31017;-83
2023/04/02 00:42:37;;;;;;;;;6.00;4.33;;;;;12.63;100.00;100596.78;4879385;29;28888;-83
2023/04/02 00:45:03;;;;;;;;;6.33;6.33;;;;;12.55;100.00;100600.31;4882717;29;28503;-83
2023/04/02 00:47:36;;;;;;;;;4.33;4.33;;;;;12.67;100.00;100598.56;4882644;29;28604;-82
2023/04/02 00:50:19;;;;;;;;;3.00;3.00;;;;;12.66;100.00;100603.00;4881280;29;30822;-83
2023/04/02 00:52:49;;;;;;;;;8.33;8.33;;;;;12.57;100.00;100614.53;4882688;29;29824;-83
2023/04/02 00:55:20;;;;;;;;;7.00;4.00;;;;;12.39;100.00;100614.47;4883335;29;27959;-82
2023/04/02 00:57:48;;;;;;;;;3.00;3.00;;;;;12.46;100.00;100613.59;4883973;29;28446;-83
2023/04/02 01:00:28;;;;;;;;;5.00;5.00;;;;;12.46;100.00;100608.25;4882780;29;28365;-83
2023/04/02 01:03:15;;;;;;;;;4.67;4.67;;;;;12.52;100.00;100616.31;4882556;29;29781;-83
2023/04/02 01:05:44;;;;;;;;;6.00;4.50;;;;;12.39;100.00;100614.47;4882406;29;28294;-83
2023/04/02 01:08:41;;;;;;;;;4.00;4.00;;;;;12.52;100.00;100624.31;4882454;29;28452;-84
2023/04/02 01:11:38;;;;;;;;;3.00;3.00;;;;;12.55;100.00;100626.09;4883423;29;29079;-83
2023/04/02 01:14:15;;;;;;;;;5.00;5.00;;;;;12.60;100.00;100627.91;4882914;29;29450;-84
2023/04/02 01:17:09;;;;;;;;;8.00;8.00;;;;;12.61;100.00;100627.00;4882701;29;28398;-84
2023/04/02 01:19:45;;;;;;;;;3.33;3.33;;;;;12.49;100.00;100632.28;4882963;29;28450;-84
2023/04/02 01:22:29;;;;;;;;;7.00;7.00;;;;;12.63;100.00;100627.03;4884711;29;28819;-83
2023/04/02 01:24:57;;;;;;;;;9.50;4.00;;;;;12.60;100.00;100640.34;4883089;29;28431;-84
2023/04/02 01:27:38;;;;;;;;;4.00;3.33;;;;;12.60;100.00;100635.00;4883263;29;28478;-83
2023/04/02 01:30:06;;;;;;;;;4.67;4.67;;;;;12.51;100.00;100633.19;4872887;29;27849;-84
2023/04/02 01:32:33;;;;;;;;;3.00;2.00;;;;;12.48;100.00;100646.53;4872039;29;29738;-84
2023/04/02 01:35:00;;;;;;;;;4.00;4.00;;;;;12.33;100.00;100638.44;4882716;29;28651;-84
2023/04/02 01:38:09;;;;;;;;;3.25;3.00;;;;;12.47;100.00;100642.06;4881944;29;28501;-84
2023/04/02 01:40:42;;;;;;;;;3.00;3.00;;;;;12.35;100.00;100644.69;4879110;29;27874;-84
2023/04/02 01:43:10;;;;;;;;;3.00;3.00;;;;;12.21;100.00;100650.81;4884362;29;28803;-84
2023/04/02 01:45:36;;;;;;;;;7.25;3.75;;;;;12.20;100.00;100646.38;4885334;29;28415;-84
2023/04/02 01:48:11;;;;;;;;;4.33;3.00;;;;;12.32;100.00;100639.31;4883609;29;28840;-84
2023/04/02 01:50:40;;;;;;;;;5.00;4.00;;;;;12.29;100.00;100645.53;4883770;29;28047;-84
2023/04/02 01:53:10;;;;;;;;;3.67;3.67;;;;;12.24;100.00;100646.38;4882593;29;29898;-83
2023/04/02 01:55:47;;;;;;;;;2.67;2.67;;;;;12.29;100.00;100650.84;4883546;29;27756;-83
2023/04/02 01:58:16;;;;;;;;;3.00;3.00;;;;;12.13;100.00;100652.53;4883692;29;28562;-83
2023/04/02 02:01:03;;;;;;;;;2.00;2.00;;;;;12.27;100.00;100657.06;4885473;29;28010;-83
2023/04/02 02:03:30;;;;;;;;;2.67;2.67;;;;;12.14;100.00;100654.34;4884332;29;28163;-82
2023/04/02 02:05:56;;;;;;;;;6.75;3.00;;;;;12.06;100.00;100650.72;4885019;29;28847;-83
2023/04/02 02:08:38;;;;;;;;;3.25;2.00;;;;;12.17;100.00;100642.78;4885718;29;28438;-82
2023/04/02 02:11:05;;;;;;;;;3.00;2.00;;;;;12.00;100.00;100653.38;4883929;29;28445;-82
2023/04/02 02:13:31;;;;;;;;;3.00;3.00;;;;;11.94;100.00;100648.88;4883429;29;29949;-83
2023/04/02 02:16:02;;;;;;;;;3.00;3.00;;;;;12.06;100.00;100658.72;4868931;29;28779;-83
2023/04/02 02:18:28;;;;;;;;;1.50;1.50;;;;;11.92;100.00;100666.63;4886444;29;28626;-83
2023/04/02 02:20:59;;;;;;;;;1.00;1.00;;;;;11.82;100.00;100665.63;4884375;29;27878;-82
2023/04/02 02:23:31;;;;;;;;;2.00;2.00;;;;;11.84;100.00;100675.41;4885053;29;28551;-83
2023/04/02 02:25:57;;;;;;;;;2.00;1.00;;;;;11.60;100.00;100661.00;4883362;29;28808;-82
2023/04/02 02:28:28;;;;;;;;;2.67;1.67;;;;;11.58;100.00;100662.78;4882662;29;28513;-83
2023/04/02 02:31:06;;;;;;;;;1.00;1.00;;;;;11.64;100.00;100673.47;4882390;29;28475;-84
2023/04/02 02:33:45;;;;;;;;;2.00;2.00;;;;;11.61;100.00;100698.31;4884485;29;28155;-84
2023/04/02 02:36:19;;;;;;;;;0.00;0.00;;;;;11.69;100.00;100698.38;4867204;29;28554;-84
2023/04/02 02:39:03;;;;;;;;;1.00;1.00;;;;;11.71;100.00;100696.59;4882755;29;27931;-83
2023/04/02 02:41:40;;;;;;;;;0.33;0.33;;;;;11.69;100.00;100689.47;4883367;29;27910;-84
2023/04/02 02:44:16;;;;;;;;;1.00;1.00;;;;;11.74;100.00;100693.97;4883373;29;30016;-83
2023/04/02 02:46:56;;;;;;;;;1.75;1.00;;;;;11.76;100.00;100691.34;4884620;29;28713;-84
2023/04/02 02:49:30;;;;;;;;;2.00;1.00;;;;;11.78;100.00;100692.25;4883238;29;28508;-82
2023/04/02 02:52:07;;;;;;;;;1.00;1.00;;;;;11.85;100.00;100706.50;4884487;29;28492;-82
2023/04/02 02:54:36;;;;;;;;;0.75;0.75;;;;;11.68;100.00;100711.69;4881159;29;30350;-83
2023/04/02 02:57:06;;;;;;;;;1.00;1.00;;;;;11.74;100.00;100706.41;4884182;29;28620;-84
2023/04/02 02:59:32;;;;;;;;;2.00;0.00;;;;;11.64;100.00;100707.22;4884157;29;28003;-83
2023/04/02 03:02:00;;;;;;;;;0.00;0.00;;;;;11.65;100.00;100714.31;4883740;29;27922;-83
2023/04/02 03:04:29;;;;;;;;;0.33;0.00;;;;;11.52;100.00;100718.66;4884002;29;29049;-83
2023/04/02 03:06:56;;;;;;;;;1.00;0.50;;;;;11.56;100.00;100720.47;4884787;29;28445;-84
2023/04/02 03:09:40;;;;;;;;;1.25;0.50;;;;;11.50;100.00;100731.94;4884939;29;27971;-84
2023/04/02 03:12:30;;;;;;;;;1.33;1.33;;;;;11.64;100.00;100721.41;4884950;29;28392;-84
2023/04/02 03:15:10;;;;;;;;;1.00;1.00;;;;;11.59;100.00;100707.16;4883105;29;30610;-84
2023/04/02 03:17:53;;;;;;;;;0.00;0.00;;;;;11.64;100.00;100723.19;4885763;29;27821;-84
2023/04/02 03:20:40;;;;;;;;;1.33;1.00;;;;;11.61;100.00;100724.03;4882670;29;28433;-84
2023/04/02 03:23:19;;;;;;;;;1.33;1.33;;;;;11.65;100.00;100716.97;4883067;29;28018;-84
2023/04/02 03:26:06;;;;;;;;;1.00;1.00;;;;;11.68;100.00;100731.22;4883093;29;28813;-84
2023/04/02 03:28:37;;;;;;;;;0.75;0.75;;;;;11.61;100.00;100742.69;4883858;29;27919;-84
2023/04/02 03:31:21;;;;;;;;;0.75;0.75;;;;;11.67;100.00;100739.19;4882818;29;28580;-84
2023/04/02 03:33:54;;;;;;;;;2.00;2.00;;;;;11.68;100.00;100747.22;4883210;29;28610;-84
2023/04/02 03:36:42;;;;;;;;;1.00;1.00;;;;;11.70;100.00;100760.56;4866550;29;29878;-84
2023/04/02 03:43:11;;;;;;;;;1.75;1.75;;;;;11.66;100.00;100756.97;4865976;29;28521;-83
2023/04/02 03:45:41;;;;;;;;;3.00;2.00;;;;;11.63;100.00;100766.69;4863791;29;28125;-83
2023/04/02 03:48:17;;;;;;;;;1.00;1.00;;;;;11.62;100.00;100755.16;4874713;29;29986;-83
2023/04/02 03:50:52;;;;;;;;;3.00;3.00;;;;;11.64;100.00;100755.16;4879489;29;27980;-83
2023/04/02 03:53:21;;;;;;;;;2.00;2.00;;;;;11.55;100.00;100771.94;4882940;29;28906;-84
2023/04/02 03:55:47;;;;;;;;;3.33;2.67;;;;;11.57;100.00;100764.84;4882460;29;28496;-84
2023/04/02 03:58:39;;;;;;;;;2.00;2.00;;;;;11.78;100.00;100764.19;4883919;29;28507;-84
2023/04/02 04:01:27;;;;;;;;;2.00;2.00;;;;;11.80;100.00;100773.09;4883107;29;28537;-84
2023/04/02 04:04:00;;;;;;;;;3.75;1.75;;;;;11.79;100.00;100780.16;4881470;29;27876;-83
2023/04/02 04:06:30;;;;;;;;;3.33;2.00;;;;;11.80;100.00;100779.31;4882458;29;28732;-83
2023/04/02 04:09:11;;;;;;;;;4.00;4.00;;;;;11.86;100.00;100781.13;4881104;29;30679;-83
2023/04/02 04:11:47;;;;;;;;;4.00;4.00;;;;;11.76;100.00;100781.94;4883462;29;28368;-83
2023/04/02 04:14:15;;;;;;;;;6.33;5.67;;;;;11.68;100.00;100789.84;4882197;29;27867;-83
2023/04/02 04:16:46;;;;;;;;;4.00;4.00;;;;;11.80;100.00;100792.63;4883114;29;28554;-82
2023/04/02 04:19:32;;;;;;;;;4.00;4.00;;;;;11.79;100.00;100781.94;4882700;29;28577;-83
2023/04/02 04:22:16;;;;;;;;;5.50;5.50;;;;;11.93;100.00;100796.31;4881616;29;29594;-83
2023/04/02 04:24:44;;;;;;;;;8.33;6.67;;;;;11.66;100.00;100793.38;4882428;29;28417;-84
2023/04/02 04:27:38;;;;;;;;;13.33;8.33;;;;;11.82;100.00;100804.19;4884883;29;28749;-84
2023/04/02 04:30:17;;;;;;;;;8.00;5.67;;;;;11.67;100.00;100819.13;4867846;29;29886;-84
2023/04/02 04:33:10;;;;;;;;;11.33;9.00;;;;;11.74;100.00;100820.97;4882897;29;28481;-83
2023/04/02 04:35:47;;;;;;;;;9.67;9.00;;;;;11.71;100.00;100811.16;4881052;29;28561;-84
2023/04/02 04:38:26;;;;;;;;;9.33;9.00;;;;;11.64;100.00;100814.66;4882019;29;28541;-84
2023/04/02 04:40:56;;;;;;;;;9.00;9.00;;;;;11.60;100.00;100819.06;4880330;29;28625;-84
2023/04/02 04:43:48;;;;;;;;;8.00;7.00;;;;;11.66;100.00;100818.22;4882761;29;28501;-83
2023/04/02 04:46:24;;;;;;;;;9.00;8.00;;;;;11.64;100.00;100822.66;4880765;29;28402;-84
2023/04/02 04:48:55;;;;;;;;;8.67;5.33;;;;;11.58;100.00;100836.78;4882521;29;28742;-84
2023/04/02 04:51:27;;;;;;;;;8.67;8.67;;;;;11.66;100.00;100828.00;4881989;29;29621;-84
2023/04/02 04:53:54;;;;;;;;;10.67;10.67;;;;;11.51;100.00;100839.34;4880354;29;28542;-83
2023/04/02 04:56:27;;;;;;;;;11.00;9.33;;;;;11.56;100.00;100837.66;4882060;29;28462;-83
2023/04/02 04:59:12;;;;;;;;;12.67;10.33;;;;;11.58;100.00;100849.22;4882178;29;28547;-83
2023/04/02 05:01:51;;;;;;;;;11.33;8.67;;;;;11.53;100.00;100840.28;4881569;29;29946;-83
2023/04/02 05:04:50;;;;;;;;;13.67;11.67;;;;;11.59;100.00;100858.97;4881371;29;28565;-83
2023/04/02 05:07:28;;;;;;;;;16.00;9.33;;;;;11.52;100.00;100865.13;4870150;29;28621;-83
2023/04/02 05:09:59;;;;;;;;;15.00;12.00;;;;;11.36;100.00;100866.69;4881178;29;28589;-84
2023/04/02 05:12:53;;;;;;;;;12.00;9.67;;;;;11.54;100.00;100871.38;4881579;29;30040;-83
2023/04/02 05:15:40;;;;;;;;;10.33;9.33;;;;;11.50;100.00;100875.75;4883954;29;27970;-83
2023/04/02 05:18:15;;;;;;;;;11.33;8.00;;;;;11.59;100.00;100881.22;4883568;29;28960;-82
2023/04/02 05:21:07;;;;;;;;;10.00;9.00;;;;;11.58;100.00;100882.06;4886099;29;27889;-83
2023/04/02 05:23:51;;;;;;;;;12.33;11.33;;;;;11.46;100.00;100895.25;4886523;29;29773;-83
2023/04/02 05:26:31;;;;;;;;;11.00;11.00;;;;;11.35;100.00;100880.88;4884550;29;28684;-82
2023/04/02 05:29:25;;;;;;;;;13.00;13.00;;;;;11.36;100.00;100894.22;4885386;29;27900;-83
2023/04/02 05:32:04;;;;;;;;;12.00;9.67;;;;;11.40;100.00;100898.72;4884912;29;28634;-83
2023/04/02 05:34:37;;;;;;;;;11.00;9.00;;;;;11.38;100.00;100887.16;4884470;29;29183;-83
2023/04/02 05:37:04;;;;;;;;;15.67;15.67;;;;;11.33;100.00;100902.19;4884482;29;28671;-83
2023/04/02 05:39:31;;;;;;;;;12.67;12.67;;;;;11.27;100.00;100894.13;4885996;29;27884;-84
2023/04/02 05:42:02;;;;;;;;;11.00;11.00;;;;;11.31;100.00;100921.66;4869496;29;28784;-84
2023/04/02 05:44:32;;;;;;;;;12.00;9.00;;;;;11.38;100.00;100913.78;4871686;29;30307;-84
2023/04/02 05:47:12;;;;;;;;;16.67;13.33;;;;;11.46;100.00;100923.66;4865674;29;28480;-84
2023/04/02 05:49:38;;;;;;;;;14.33;12.00;;;;;11.32;100.00;100928.78;4864899;29;27980;-85
2023/04/02 05:52:07;;;;;;;;;11.00;10.33;;;;;11.39;100.00;100917.31;4865929;29;27920;-84
2023/04/02 05:54:42;;;;;;;;;11.00;9.00;;;;;11.31;100.00;100926.97;4866751;29;28234;-83
2023/04/02 05:57:14;;;;;;;;;10.00;10.00;;;;;11.32;100.00;100926.13;4878535;29;28685;-83
2023/04/02 05:59:50;;;;;;;;;9.00;8.33;;;;;11.42;100.00;100930.69;4883366;29;28500;-83
2023/04/02 06:02:19;;;;;;;;;6.67;6.67;;;;;11.49;100.00;100931.66;4884656;29;27920;-85
2023/04/02 06:05:15;;;;;;;;;9.00;9.00;;;;;11.48;100.00;100943.22;4884346;29;29928;-83
2023/04/02 06:07:57;;;;;;;;;11.33;11.33;;;;;11.43;100.00;100948.44;4886540;29;28527;-83
2023/04/02 06:10:32;;;;;;;;;13.00;8.67;;;;;11.22;100.00;100949.03;4885442;29;28413;-83
2023/04/02 06:13:03;;;;;;;;;12.00;12.00;;;;;11.31;100.00;100954.53;4887016;29;27924;-84
2023/04/02 06:15:31;;;;;;;;;9.33;8.67;;;;;11.29;100.00;100952.69;4883470;29;30808;-84
2023/04/02 06:18:08;;;;;;;;;8.67;7.33;;;;;11.41;100.00;100964.44;4885647;29;28534;-83
2023/04/02 06:20:34;;;;;;;;;10.33;9.00;;;;;11.34;100.00;100975.84;4885660;29;28571;-83
2023/04/02 06:23:00;;;;;;;;;7.67;7.67;;;;;11.37;100.00;100972.31;4884942;29;28503;-82
2023/04/02 06:25:45;;;;;;;;;8.00;7.33;;;;;11.45;100.00;100981.31;4885114;29;28219;-83
2023/04/02 06:28:25;;;;;;;;;9.00;9.00;;;;;11.28;100.00;100970.44;4884917;29;28718;-82
2023/04/02 06:30:53;;;;;;;;;9.33;8.00;;;;;11.24;100.00;100970.38;4884583;29;28482;-83
2023/04/02 06:33:19;;;;;;;;;8.00;5.33;;;;;11.14;100.00;100979.97;4884973;29;28461;-82
2023/04/02 06:35:50;;;;;;;;;9.00;9.00;;;;;11.21;100.00;100976.56;4885209;29;28869;-83
2023/04/02 06:38:24;;;;;;;;;9.67;8.00;;;;;11.31;100.00;100975.81;4883731;29;28534;-84
2023/04/02 06:40:52;;;;;;;;;8.67;7.67;;;;;11.24;100.00;100989.91;4883448;29;27847;-84
2023/04/02 06:43:40;;;;;;;;;8.00;8.00;;;;;11.40;100.00;100991.91;4883979;29;28480;-84
2023/04/02 06:46:22;;;;;;;;;9.67;9.67;;;;;11.27;100.00;100981.97;4883751;29;30317;-84
2023/04/02 06:48:51;;;;;;;;;1.33;1.33;;;;;11.23;100.00;100990.78;4882773;29;29667;-84
2023/04/02 06:51:21;;;;;;;;;8.00;8.00;;;;;11.29;100.00;100998.88;4883251;29;27856;-84
2023/04/02 06:53:50;;;;;;;;;10.33;10.33;;;;;11.34;100.00;101013.13;4884401;29;28233;-84
2023/04/02 06:57:12;;;;;;;;;4.67;4.67;;;;;11.49;100.00;101017.81;4882911;29;30592;-84
2023/04/02 06:59:37;;;;;;;;;8.67;7.00;;;;;11.27;100.00;101011.25;4884144;29;27856;-84
2023/04/02 07:02:37;;;;;;;;;11.33;10.00;;;;;11.38;100.00;101020.28;4882233;29;27788;-84
2023/04/02 07:05:08;;;;;;;;;10.67;10.33;;;;;11.41;100.00;101024.75;4867672;29;28535;-83
2023/04/02 07:07:33;;;;;;;;;10.00;6.67;;;;;11.29;100.00;101025.50;4881926;29;30377;-84
2023/04/02 07:10:00;;;;;;;;;9.33;7.33;;;;;11.36;100.00;101038.00;4884773;29;28595;-83
2023/04/02 07:12:26;;;;;;;;;7.67;7.67;;;;;11.23;100.00;101022.72;4884081;29;28486;-83
2023/04/02 07:14:51;;;;;;;;;7.67;7.67;;;;;11.25;100.00;101028.97;4886530;29;28675;-83
2023/04/02 07:17:18;;;;;;;;;8.67;8.00;;;;;11.30;100.00;101029.94;4884451;29;30616;-83
2023/04/02 07:19:48;;;;;;;;;11.33;11.33;;;;;11.35;100.00;101035.31;4883237;29;28435;-83
2023/04/02 07:22:15;;;;;;;;;14.67;11.67;;;;;11.39;100.00;101043.41;4880987;29;27902;-83
2023/04/02 07:24:40;;;;;;;;;10.00;10.00;;;;;11.43;100.00;101054.09;4880953;29;28561;-85
2023/04/02 07:27:06;;;;;;;;;13.00;9.67;;;;;11.43;100.00;101054.97;4885462;29;29110;-83
2023/04/02 07:29:31;;;;;;;;;6.67;6.67;;;;;11.39;100.00;101053.13;4885632;29;28484;-83
2023/04/02 07:31:57;;;;;;;;;15.33;14.00;;;;;11.33;100.00;101074.34;4884329;29;28619;-83
2023/04/02 07:34:22;;;;;;;;;14.67;9.33;;;;;11.28;100.00;101076.94;4867682;29;28544;-83
2023/04/02 07:36:48;;;;;;;;;9.67;8.33;;;;;11.32;100.00;101084.09;4883478;29;29669;-83
2023/04/02 07:39:13;;;;;;;;;12.33;10.00;;;;;11.36;100.00;101075.28;4882988;29;28434;-83
2023/04/02 07:42:11;;;;;;;;;12.33;9.00;;;;;11.60;100.00;101084.56;4882152;29;27773;-83
2023/04/02 07:44:37;;;;;;;;;12.33;9.33;;;;;11.44;100.00;101078.09;4828574;29;28018;-83
2023/04/02 07:47:02;;;;;;;;;10.00;10.00;;;;;11.45;100.00;101081.63;4812925;29;31238;-82
2023/04/02 07:49:34;;;;;;;;;18.33;13.00;;;;;11.55;100.00;101083.56;4828081;29;28464;-84
2023/04/02 07:51:59;;;;;;;;;10.00;10.00;;;;;11.44;100.00;101087.84;4811932;29;28466;-83
2023/04/02 07:54:26;;;;;;;;;15.67;11.33;;;;;11.46;100.00;101083.44;4802566;29;28500;-83
2023/04/02 07:56:51;;;;;;;;;15.33;13.67;;;;;11.37;100.00;101085.09;4792079;29;28469;-83
2023/04/02 07:59:16;;;;;;;;;14.33;12.67;;;;;11.44;100.00;101098.50;4781364;29;29092;-83
2023/04/02 08:01:42;;;;;;;;;12.00;12.00;;;;;11.49;100.00;101107.44;4826222;29;27888;-83
2023/04/02 08:04:17;;;;;;;;;13.67;10.33;;;;;11.62;100.00;101104.13;4819642;29;28284;-83
2023/04/02 08:06:43;;;;;;;;;14.00;11.33;;;;;11.49;100.00;101115.44;4825868;29;28086;-83
2023/04/02 08:09:08;;;;;;;;;7.00;7.00;;;;;11.49;100.00;101119.03;4819035;29;28465;-83
2023/04/02 08:11:34;;;;;;;;;7.33;7.33;;;;;11.39;100.00;101120.63;4825852;29;28561;-84
2023/04/02 08:13:59;;;;;;;;;11.33;10.67;;;;;11.43;100.00;101120.66;4827412;29;28669;-84
2023/04/02 08:16:25;;;;;;;;;15.00;13.67;;;;;11.46;100.00;101134.06;4827004;29;29092;-83
2023/04/02 08:18:50;;;;;;;;;13.00;12.00;;;;;11.44;100.00;101128.69;4827323;29;28601;-83
2023/04/02 08:21:24;;;;;;;;;16.33;13.67;;;;;11.50;100.00;101130.56;4860899;29;27931;-84
2023/04/02 08:23:49;;;;;;;;;16.00;12.67;;;;;11.51;100.00;101130.59;4879782;29;27910;-84
2023/04/02 08:26:18;;;;;;;;;15.67;14.00;;;;;11.64;100.00;101129.00;4884263;29;28476;-84
2023/04/02 08:28:43;;;;;;;;;15.00;14.33;;;;;11.57;100.00;101136.03;4882056;29;29228;-84
2023/04/02 08:31:09;;;;;;;;;20.67;17.33;;;;;11.48;100.00;101138.53;4884620;29;28267;-84
2023/04/02 08:33:35;;;;;;;;;18.67;18.33;;;;;11.48;100.00;101135.84;4883095;29;28461;-84
2023/04/02 08:36:00;;;;;;;;;19.00;14.33;;;;;11.53;100.00;101147.50;4868494;29;29936;-84
2023/04/02 08:38:27;;;;;;;;;19.00;16.67;;;;;11.67;100.00;101149.47;4883241;29;29294;-84
2023/04/02 08:41:01;;;;;;;;;15.00;11.33;;;;;11.66;100.00;101153.03;4881836;29;27957;-84
2023/04/02 08:43:46;;;;;;;;;17.67;15.00;;;;;11.68;100.00;101157.50;4881628;29;28075;-84
2023/04/02 08:46:20;;;;;;;;;16.67;14.33;;;;;11.70;100.00;101161.09;4881237;29;29929;-84
2023/04/02 08:48:54;;;;;;;;;18.33;14.00;;;;;11.64;100.00;101160.09;4882602;29;28491;-84
2023/04/02 08:51:26;;;;;;;;;13.67;13.67;;;;;11.75;100.00;101158.47;4883398;29;27918;-84
2023/04/02 08:53:57;;;;;;;;;14.00;10.00;;;;;11.85;100.00;101170.19;4883052;29;28911;-83
2023/04/02 08:56:32;;;;;;;;;14.00;14.00;;;;;11.81;100.00;101159.50;4883197;29;28433;-84
2023/04/02 08:59:20;;;;;;;;;14.00;14.00;;;;;11.90;100.00;101168.53;4881843;29;29010;-84
2023/04/02 09:02:13;;;;;;;;;15.67;13.00;;;;;11.99;100.00;101174.88;4882979;29;27938;-83
2023/04/02 09:04:40;;;;;;;;;15.00;14.00;;;;;11.81;100.00;101179.91;4882905;29;28558;-83
2023/04/02 09:07:12;;;;;;;;;14.00;12.67;;;;;11.92;100.00;101177.47;4881869;29;30163;-83
2023/04/02 09:09:37;;;;;;;;;13.67;13.67;;;;;11.89;100.00;101194.28;4882836;29;28453;-83
2023/04/02 09:12:04;;;;;;;;;13.67;11.67;;;;;11.95;100.00;101193.47;4882185;29;28510;-83
2023/04/02 09:14:43;;;;;;;;;13.67;13.00;;;;;11.89;100.00;101191.59;4883276;29;28533;-83
2023/04/02 09:17:18;;;;;;;;;17.33;16.33;;;;;12.05;100.00;101207.84;4881717;29;30015;-83
2023/04/02 09:19:51;;;;;;;;;15.00;14.00;;;;;12.06;100.00;101207.88;4882651;29;28839;-83
2023/04/02 09:22:23;;;;;;;;;19.00;14.67;;;;;12.09;100.00;101194.59;4884399;29;28525;-82
2023/04/02 09:24:57;;;;;;;;;14.67;14.67;;;;;12.17;100.00;101205.38;4884565;29;28465;-83
2023/04/02 09:27:25;;;;;;;;;16.33;16.33;;;;;12.24;100.00;101211.69;4881922;29;30715;-83
2023/04/02 09:30:05;;;;;;;;;23.33;15.67;;;;;12.32;100.00;101199.34;4884008;29;27862;-83
2023/04/02 09:32:46;;;;;;;;;13.33;13.33;;;;;12.26;100.00;101215.28;4883559;29;28483;-82
2023/04/02 09:35:14;;;;;;;;;15.00;14.00;;;;;12.46;100.00;101213.78;4884722;29;29031;-83
2023/04/02 09:37:41;;;;;;;;;19.33;19.33;;;;;12.38;100.00;101232.38;4860364;29;30069;-83
2023/04/02 09:40:26;;;;;;;;;21.00;18.67;;;;;12.51;100.00;101227.22;4847105;29;28323;-84
2023/04/02 09:43:09;;;;;;;;;14.33;14.33;;;;;12.44;100.00;101218.19;4830802;29;28518;-83
2023/04/02 09:45:35;;;;;;;;;16.00;15.33;;;;;12.27;100.00;101217.97;4829456;29;28496;-83
2023/04/02 09:48:25;;;;;;;;;17.00;14.67;;;;;12.50;100.00;101228.97;4829031;29;31039;-84
2023/04/02 09:51:16;;;;;;;;;20.00;17.00;;;;;12.52;100.00;101232.56;4828404;29;28789;-83
2023/04/02 09:53:48;;;;;;;;;14.00;13.00;;;;;12.58;100.00;101246.00;4845564;29;28636;-83
2023/04/02 09:56:20;;;;;;;;;14.67;14.67;;;;;12.57;100.00;101245.97;4845372;29;28590;-83
2023/04/02 09:59:02;;;;;;;;;17.00;14.33;;;;;12.54;100.00;101243.25;4846400;29;28529;-83
2023/04/02 10:01:42;;;;;;;;;16.00;16.00;;;;;12.49;100.00;101271.63;4849404;29;28642;-83
2023/04/02 10:04:45;;;;;;;;;13.33;13.00;;;;;12.58;100.00;101250.41;4866610;29;27928;-83
2023/04/02 10:07:36;;;;;;;;;11.67;10.00;;;;;12.81;100.00;101253.41;4850312;29;28673;-83
2023/04/02 10:10:14;;;;;;;;;18.33;11.33;;;;;12.87;100.00;101261.50;4886827;29;28498;-84
2023/04/02 10:12:42;;;;;;;;;16.00;12.33;;;;;12.83;100.00;101256.09;4885291;29;28704;-84
2023/04/02 10:15:17;;;;;;;;;16.00;14.33;;;;;12.79;100.00;101265.84;4886388;29;28493;-84
2023/04/02 10:17:44;;;;;;;;;14.67;13.00;;;;;12.61;100.00;101255.81;4887091;29;27933;-83
2023/04/02 10:20:16;;;;;;;;;13.00;10.33;;;;;12.72;100.00;101277.28;4889011;29;29817;-84
2023/04/02 10:22:42;;;;;;;;;15.00;13.67;;;;;12.55;100.00;101261.06;4888636;29;27948;-84
2023/04/02 10:25:15;;;;;;;;;14.33;10.33;;;;;12.68;100.00;101264.78;4885687;29;28070;-83
2023/04/02 10:28:02;;;;;;;;;12.33;12.33;;;;;12.69;100.00;101272.81;4886314;29;27888;-83
2023/04/02 10:30:39;;;;;;;;;16.67;14.33;;;;;12.56;100.00;101289.50;4886056;29;28535;-83
2023/04/02 10:33:28;;;;;;;;;12.33;12.00;;;;;12.63;100.00;101285.19;4886693;29;28492;-84
2023/04/02 10:36:05;;;;;;;;;19.33;16.00;;;;;12.57;100.00;101286.88;4885754;29;28736;-83
2023/04/02 10:38:41;;;;;;;;;11.33;10.33;;;;;12.75;100.00;101280.03;4883909;29;28525;-85
2023/04/02 10:41:42;;;;;;;;;16.67;15.67;;;;;12.74;100.00;101279.09;4883917;29;30079;-83
2023/04/02 10:44:25;;;;;;;;;16.67;16.00;;;;;12.76;100.00;101287.13;4883912;29;28485;-83
2023/04/02 10:46:58;;;;;;;;;24.50;18.50;;;;;12.82;100.00;101281.88;4884079;29;28429;-83
2023/04/02 10:50:12;;;;;;;;;17.33;17.33;;;;;12.87;100.00;101311.31;4883001;29;28541;-83
2023/04/02 10:52:50;;;;;;;;;15.33;15.33;;;;;12.80;100.00;101304.97;4882427;29;28558;-83
2023/04/02 10:55:28;;;;;;;;;22.00;22.00;;;;;12.89;100.00;101310.47;4886127;29;29276;-83
2023/04/02 10:57:59;;;;;;;;;15.33;13.67;;;;;12.80;100.00;101304.97;4885517;29;27846;-83
2023/04/02 11:00:32;;;;;;;;;19.00;17.00;;;;;12.67;100.00;101322.59;4884642;29;28431;-83
2023/04/02 11:03:35;;;;;;;;;20.33;20.33;;;;;12.65;100.00;101315.47;4885001;29;30015;-83
2023/04/02 11:06:15;;;;;;;;;23.33;22.00;;;;;12.61;100.00;101317.19;4811438;29;28603;-83
2023/04/02 11:08:45;;;;;;;;;18.67;16.33;;;;;12.72;100.00;101317.31;4795576;29;27970;-83
2023/04/02 11:11:17;;;;;;;;;16.67;16.67;;;;;12.83;100.00;101310.38;4794931;29;28558;-84
2023/04/02 11:14:09;;;;;;;;;17.00;17.00;;;;;12.93;100.00;101325.66;4809698;29;30840;-84
2023/04/02 11:16:35;;;;;;;;;23.33;22.67;;;;;12.81;100.00;101328.16;4808256;29;28765;-83
2023/04/02 11:19:13;;;;;;;;;15.00;13.00;;;;;12.98;100.00;101325.69;4794145;29;28493;-84
2023/04/02 11:21:41;;;;;;;;;15.67;14.33;;;;;12.87;100.00;101322.00;4794067;29;28474;-83
2023/04/02 11:24:41;;;;;;;;;16.33;16.00;;;;;12.97;100.00;101323.91;4793913;29;29763;-83
2023/04/02 11:27:26;;;;;;;;;16.67;16.67;;;;;12.99;100.00;101333.75;4750265;29;29875;-83
2023/04/02 11:30:01;;;;;;;;;24.00;21.33;;;;;12.95;100.00;101337.25;4758513;29;27888;-84
2023/04/02 11:32:32;;;;;;;;;21.00;17.33;;;;;12.88;100.00;101340.69;4756008;30;28510;-83
2023/04/02 11:35:01;;;;;;;;;27.00;16.00;;;;;12.78;100.00;101344.09;4756052;30;29888;-83
2023/04/02 11:37:36;;;;;;;;;11.00;10.00;;;;;12.87;100.00;101354.94;4756385;30;29918;-83
2023/04/02 11:40:40;;;;;;;;;14.33;11.00;;;;;12.92;100.00;101353.19;4755261;30;28603;-83
2023/04/02 11:43:33;;;;;;;;;18.00;17.33;;;;;12.93;100.00;101362.13;4781649;29;28474;-83
2023/04/02 11:46:24;;;;;;;;;19.67;16.33;;;;;12.85;100.00;101358.47;4807883;29;29879;-84
2023/04/02 11:48:50;;;;;;;;;19.33;17.00;;;;;12.68;100.00;101355.50;4809696;29;29255;-83
2023/04/02 11:51:33;;;;;;;;;17.00;16.00;;;;;12.89;100.00;101361.19;4809597;29;28495;-83